ADDS METAR Data INFO
IDs: Format: Raw Decoded Include TAF

Data at: 0429 UTC 28 Jul 2017

KCDS 280353Z AUTO 04004KT 10SM CLR 28/19 A2997 RMK AO2 SLP117 T02830194
KCDS 280253Z AUTO 03008KT 10SM CLR 29/19 A2996 RMK AO2 SLP112 T02890189 53016
KCDS 280153Z AUTO 01013KT 10SM BKN100 32/20 A2994 RMK AO2 SLP105 T03170200
KCDS 280053Z AUTO 21006KT 10SM SCT100 36/13 A2992 RMK AO2 SLP097 T03610133
KCDS 272353Z AUTO 18006KT 10SM CLR 37/14 A2990 RMK AO2 SLP094 T03670144 10383 20344 56023
KCDS 272253Z AUTO 18007KT 10SM FEW095 37/15 A2992 RMK AO2 SLP101 T03670150
KCDS 272153Z AUTO 13005KT 10SM CLR 37/16 A2995 RMK AO2 SLP107 T03720156
KCDS 272053Z AUTO 20006KT 10SM CLR 37/14 A2998 RMK AO2 SLP117 T03670144 56025
KCDS 271953Z AUTO VRB03KT 10SM CLR 37/16 A3000 RMK AO2 SLP126 T03720161
KCDS 271853Z AUTO 00000KT 10SM CLR 35/17 A3002 RMK AO2 SLP134 T03500167
KCDS 271753Z AUTO 31007KT 10SM CLR 34/17 A3006 RMK AO2 SLP144 T03440172 10350 20233 58008
KCDS 271653Z AUTO VRB05KT 10SM CLR 33/16 A3007 RMK AO2 SLP150 T03330161
KCDS 271553Z AUTO 32008KT 10SM CLR 33/17 A3008 RMK AO2 SLP152 T03280167
KCDS 271453Z AUTO 30007KT 10SM CLR 31/17 A3008 RMK AO2 SLP153 T03060172 51014
KCDS 271353Z AUTO 26005KT 10SM CLR 29/16 A3007 RMK AO2 SLP150 T02890161
KCDS 271253Z AUTO 21007KT 10SM CLR 27/16 A3005 RMK AO2 SLP143 T02670156
KCDS 271153Z AUTO 18006KT 10SM CLR 24/16 A3004 RMK AO2 SLP139 7//// T02390156 10300 20239 51016
KCDS 271053Z AUTO 28003KT 10SM SCT110 25/17 A3002 RMK AO2 SLP133 T02500167
KCDS 270953Z AUTO 24004KT 10SM FEW100 26/16 A3001 RMK AO2 SLP130 T02560156
KCDS 270853Z AUTO 19009KT 10SM CLR 27/16 A2999 RMK AO2 SLP121 T02670156 55004
KCDS 270753Z AUTO 19008KT 10SM CLR 28/15 A2998 RMK AO2 SLP119 T02780150
KCDS 270653Z AUTO 18010KT 10SM CLR 29/16 A2998 RMK AO2 SLP118 T02890156
KCDS 270553Z AUTO 18010KT 10SM CLR 30/16 A3000 RMK AO2 SLP124 T03000156 10372 20300 403830250 53011
KCDS 270453Z AUTO 17010KT 10SM CLR 31/16 A2998 RMK AO2 SLP118 T03060156
KCDS 270353Z AUTO 16012KT 10SM CLR 32/15 A2997 RMK AO2 SLP114 T03220150
KCDS 270253Z AUTO 16010KT 10SM CLR 33/16 A2996 RMK AO2 SLP113 T03280156 51013
KCDS 270153Z AUTO 17009KT 10SM CLR 34/14 A2995 RMK AO2 SLP111 T03390144
KCDS 270053Z AUTO 17012KT 10SM CLR 36/14 A2994 RMK AO2 SLP105 T03610144
KCDS 262353Z AUTO 17011G20KT 10SM CLR 37/14 A2993 RMK AO2 SLP100 T03720144 10383 20356 56014
KCDS 262253Z AUTO 16010KT 10SM CLR 38/16 A2993 RMK AO2 SLP100 T03780156
KCDS 262153Z AUTO 20012KT 10SM CLR 38/16 A2995 RMK AO2 SLP108 T03780161
KCDS 262053Z AUTO 16015G22KT 10SM CLR 38/17 A2997 RMK AO2 SLP114 T03780167 58021 $
KCDS 261953Z AUTO 17011G27KT 7SM CLR 37/17 A3000 RMK AO2 PK WND 19027/1947 SLP123 T03720167 $
KCDS 261853Z AUTO 20010G27KT 10SM CLR 37/17 A3002 RMK AO2 PK WND 19027/1849 SLP133 T03720167 $
KCDS 261753Z AUTO 20012G20KT 10SM CLR 36/18 A3004 RMK AO2 SLP137 6//// T03610178 10367 20250 57007 $
KCDS 261653Z AUTO CLR 35/18 A3004 RMK AO2 SLP139 T03500183 PWINO PNO $